Time;durP1;ratioP1;P1;durP2;ratioP2;P2;SDS_P1;SDS_P2;PMS_P1;PMS_P2;Temp;Humidity;BMP_temperature;BMP_pressure;BME280_temperature;BME280_humidity;BME280_pressure;Samples;Min_cycle;Max_cycle;Signal;HPM_P1;HPM_P2
2022/09/16 00:00:47;;;;;;;2.08;1.50;;;;;;;20.06;100.00;99470.00;5105549;28;20089;-66
2022/09/16 00:03:14;;;;;;;2.65;1.48;;;;;;;19.89;100.00;99446.22;5105592;28;20034;-66
2022/09/16 00:05:49;;;;;;;6.20;1.70;;;;;;;19.88;100.00;99469.03;5103952;28;20032;-66
2022/09/16 00:08:16;;;;;;;3.22;1.77;;;;;;;19.80;100.00;99466.56;5107015;28;20035;-66
2022/09/16 00:10:44;;;;;;;3.60;1.75;;;;;;;19.74;100.00;99468.25;5112562;27;20050;-66
2022/09/16 00:13:12;;;;;;;4.13;1.60;;;;;;;19.80;100.00;99478.28;5109846;27;20062;-66
2022/09/16 00:15:42;;;;;;;4.10;1.55;;;;;;;19.81;100.00;99488.13;5109585;28;20039;-66
2022/09/16 00:18:08;;;;;;;3.50;1.95;;;;;;;19.84;100.00;99495.88;5106778;28;20031;-66
2022/09/16 00:20:34;;;;;;;4.60;2.03;;;;;;;19.94;100.00;99493.53;5109344;28;20417;-65
2022/09/16 00:22:59;;;;;;;4.05;1.80;;;;;;;19.92;100.00;99502.94;5107778;28;20035;-67
2022/09/16 00:25:25;;;;;;;3.40;1.90;;;;;;;19.97;100.00;99501.28;5109093;28;20027;-67
2022/09/16 00:27:50;;;;;;;3.78;1.77;;;;;;;19.86;100.00;99498.34;5108084;28;20130;-66
2022/09/16 00:30:16;;;;;;;3.45;1.85;;;;;;;19.78;100.00;99490.44;5110133;28;20023;-67
2022/09/16 00:32:41;;;;;;;5.15;2.00;;;;;;;19.78;100.00;99485.84;5109831;28;20023;-67
2022/09/16 00:35:07;;;;;;;3.38;1.58;;;;;;;19.85;100.00;99497.53;5110307;27;20122;-66
2022/09/16 00:37:33;;;;;;;9.27;2.03;;;;;;;19.77;100.00;99486.88;5109991;28;20063;-66
2022/09/16 00:39:58;;;;;;;9.60;2.63;;;;;;;19.81;100.00;99493.56;5109579;28;20187;-66
2022/09/16 00:42:24;;;;;;;3.70;1.55;;;;;;;19.69;100.00;99480.81;5109524;28;20543;-67
2022/09/16 00:45:01;;;;;;;5.65;2.13;;;;;;;19.78;100.00;99491.28;5110907;27;20027;-67
2022/09/16 00:47:48;;;;;;;3.75;1.65;;;;;;;19.70;100.00;99510.53;5109272;28;20116;-66
2022/09/16 00:50:37;;;;;;;4.20;2.90;;;;;;;19.72;100.00;99503.00;5107790;28;20056;-64
2022/09/16 00:53:12;;;;;;;6.65;2.58;;;;;;;19.69;100.00;99503.44;5106993;28;20458;-66
2022/09/16 00:55:38;;;;;;;5.40;2.80;;;;;;;19.71;100.00;99501.34;5109210;28;20081;-66
2022/09/16 00:58:18;;;;;;;8.75;2.67;;;;;;;19.68;100.00;99511.81;5108868;28;20031;-67
2022/09/16 01:00:43;;;;;;;5.15;2.75;;;;;;;19.64;100.00;99510.56;5107484;27;20024;-67
2022/09/16 01:03:09;;;;;;;5.47;3.40;;;;;;;19.67;100.00;99518.31;5108675;28;20050;-67
2022/09/16 01:05:36;;;;;;;6.03;3.85;;;;;;;19.62;100.00;99513.50;5108951;28;20032;-66
2022/09/16 01:08:02;;;;;;;6.32;4.07;;;;;;;19.47;100.00;99496.56;5108961;28;20510;-66
2022/09/16 01:10:27;;;;;;;7.00;4.07;;;;;;;19.49;100.00;99502.63;5108747;28;20040;-68
2022/09/16 01:13:07;;;;;;;14.23;4.95;;;;;;;19.62;100.00;99524.38;5109109;28;20092;-67
2022/09/16 01:16:04;;;;;;;6.45;4.20;;;;;;;19.67;100.00;99521.03;5108316;27;20026;-66
2022/09/16 01:18:48;;;;;;;7.38;4.32;;;;;;;19.61;100.00;99511.81;5106983;28;20066;-66
2022/09/16 01:21:30;;;;;;;6.35;5.03;;;;;;;19.52;100.00;99518.53;5105859;27;20120;-66
2022/09/16 01:24:34;;;;;;;8.85;4.85;;;;;;;19.52;100.00;99512.25;5108776;28;20019;-66
2022/09/16 01:27:40;;;;;;;7.47;5.88;;;;;;;19.51;100.00;99516.03;5052341;28;20099;-66
2022/09/16 01:30:43;;;;;;;6.75;5.03;;;;;;;19.47;100.00;99498.44;5101513;27;20543;-66
2022/09/16 01:33:42;;;;;;;7.25;5.82;;;;;;;19.40;100.00;99511.22;5107111;28;20482;-66
2022/09/16 01:36:08;;;;;;;9.10;5.70;;;;;;;19.36;100.00;99518.13;5106858;28;20494;-66
2022/09/16 01:38:45;;;;;;;9.77;6.13;;;;;;;19.35;100.00;99516.47;5108230;28;20060;-65
2022/09/16 01:41:44;;;;;;;10.10;5.72;;;;;;;19.33;100.00;99518.53;5107348;28;20031;-66
2022/09/16 01:44:22;;;;;;;8.07;6.70;;;;;;;19.29;100.00;99520.00;5107029;28;20024;-67
2022/09/16 01:47:10;;;;;;;9.60;6.55;;;;;;;19.25;100.00;99530.44;5105856;28;20024;-66
2022/09/16 01:50:02;;;;;;;10.20;6.60;;;;;;;19.22;100.00;99517.25;5106767;28;20023;-67
2022/09/16 01:52:49;;;;;;;10.70;6.30;;;;;;;19.21;100.00;99523.75;5107709;28;20031;-66
2022/09/16 01:55:23;;;;;;;11.65;6.55;;;;;;;19.23;100.00;99524.38;5105223;28;20471;-66
2022/09/16 01:58:01;;;;;;;10.00;6.35;;;;;;;19.20;100.00;99532.09;5105515;28;20031;-65
2022/09/16 02:00:27;;;;;;;10.80;6.53;;;;;;;19.20;100.00;99541.13;5105865;28;20050;-67
2022/09/16 02:03:03;;;;;;;11.35;6.45;;;;;;;19.23;100.00;99550.72;5108989;27;20035;-67
2022/09/16 02:05:39;;;;;;;12.05;6.55;;;;;;;19.16;100.00;99537.13;5106041;28;20027;-67
2022/09/16 02:08:12;;;;;;;8.38;6.28;;;;;;;19.15;100.00;99537.34;5107967;28;20069;-68
2022/09/16 02:10:42;;;;;;;10.45;6.47;;;;;;;19.12;100.00;99530.44;5108205;28;20044;-67
2022/09/16 02:13:32;;;;;;;9.77;6.45;;;;;;;19.12;100.00;99533.13;5108039;28;20051;-68
2022/09/16 02:16:04;;;;;;;11.75;6.93;;;;;;;19.11;100.00;99541.50;5107321;28;20028;-67
2022/09/16 02:18:35;;;;;;;12.50;8.02;;;;;;;19.09;100.00;99546.34;5105758;28;20042;-67
2022/09/16 02:21:04;;;;;;;12.35;7.65;;;;;;;19.08;100.00;99548.19;5107020;28;20031;-68
2022/09/16 02:23:38;;;;;;;11.85;6.93;;;;;;;19.16;100.00;99553.44;5107688;28;20103;-69
2022/09/16 02:26:07;;;;;;;9.73;6.97;;;;;;;19.15;100.00;99549.03;5108227;28;20141;-68
2022/09/16 02:28:35;;;;;;;12.40;7.95;;;;;;;19.13;100.00;99556.59;5106637;28;20032;-68
2022/09/16 02:31:04;;;;;;;11.65;8.23;;;;;;;19.06;100.00;99550.28;5106316;28;20081;-68
2022/09/16 02:33:43;;;;;;;14.27;8.65;;;;;;;19.07;100.00;99562.84;5107189;28;20028;-68
2022/09/16 02:36:15;;;;;;;10.57;7.72;;;;;;;19.05;100.00;99561.34;5106465;27;20485;-69
2022/09/16 02:38:45;;;;;;;14.02;8.40;;;;;;;19.01;100.00;99552.81;5105435;28;20478;-69
2022/09/16 02:41:13;;;;;;;10.65;8.32;;;;;;;18.89;100.00;99546.28;5107207;28;20543;-68
2022/09/16 02:43:44;;;;;;;13.15;8.60;;;;;;;18.95;100.00;99561.78;5104965;27;20058;-68
2022/09/16 02:46:28;;;;;;;13.52;8.18;;;;;;;18.94;100.00;99572.84;5105830;28;20451;-68
2022/09/16 02:49:15;;;;;;;10.90;7.90;;;;;;;18.91;100.00;99568.69;5107291;27;20030;-68
2022/09/16 02:51:59;;;;;;;10.85;8.07;;;;;;;18.86;100.00;99576.59;5107852;28;20042;-68
2022/09/16 02:54:30;;;;;;;11.43;7.85;;;;;;;18.87;100.00;99583.72;5107054;28;20022;-69
2022/09/16 02:56:56;;;;;;;11.52;7.80;;;;;;;18.96;100.00;99562.63;5107445;28;20108;-67
2022/09/16 02:59:22;;;;;;;10.85;8.25;;;;;;;18.88;100.00;99551.94;5107609;28;20029;-67
2022/09/16 03:01:48;;;;;;;12.07;7.95;;;;;;;18.80;100.00;99561.09;5109522;28;20042;-70
2022/09/16 03:04:16;;;;;;;9.25;7.13;;;;;;;18.69;100.00;99561.72;5107604;28;20023;-68
2022/09/16 03:06:42;;;;;;;10.10;6.60;;;;;;;18.67;100.00;99573.84;5107474;28;20089;-68
2022/09/16 03:09:14;;;;;;;8.07;6.10;;;;;;;18.62;100.00;99563.59;5105835;28;20073;-68
2022/09/16 03:12:14;;;;;;;7.70;5.55;;;;;;;18.60;100.00;99562.94;5107280;28;20046;-67
2022/09/16 03:15:01;;;;;;;6.93;5.57;;;;;;;18.63;100.00;99565.25;5087152;28;20364;-68
2022/09/16 03:17:45;;;;;;;8.63;5.25;;;;;;;18.51;100.00;99566.06;5107351;28;20035;-69
2022/09/16 03:20:25;;;;;;;6.97;4.93;;;;;;;18.49;100.00;99568.13;5103677;28;20035;-68
2022/09/16 03:23:03;;;;;;;6.63;4.95;;;;;;;18.50;100.00;99564.38;5107145;28;20473;-68
2022/09/16 03:25:38;;;;;;;7.43;4.72;;;;;;;18.46;100.00;99560.38;5107205;28;20173;-68
2022/09/16 03:28:24;;;;;;;5.78;3.80;;;;;;;18.45;100.00;99562.28;5107036;28;20027;-68
2022/09/16 03:31:00;;;;;;;6.35;4.30;;;;;;;18.43;100.00;99564.34;5105436;28;20054;-68
2022/09/16 03:34:05;;;;;;;4.75;4.18;;;;;;;18.39;100.00;99554.09;5105935;28;20032;-69
2022/09/16 03:36:35;;;;;;;6.18;4.38;;;;;;;18.37;100.00;99556.16;5107922;28;20477;-69
2022/09/16 03:39:02;;;;;;;8.38;4.97;;;;;;;18.37;100.00;99558.88;5106737;28;20046;-69
2022/09/16 03:41:30;;;;;;;5.43;4.82;;;;;;;18.35;100.00;99556.34;5107128;28;20036;-69
2022/09/16 03:43:57;;;;;;;8.00;4.45;;;;;;;18.34;100.00;99554.66;5111100;28;20031;-67
2022/09/16 03:46:25;;;;;;;5.25;4.60;;;;;;;18.36;100.00;99554.47;5109830;28;20480;-66
2022/09/16 03:48:51;;;;;;;4.50;4.10;;;;;;;18.27;100.00;99540.22;5110224;28;20031;-67
2022/09/16 03:51:17;;;;;;;5.07;4.10;;;;;;;18.41;100.00;99550.13;5109275;28;20025;-68
2022/09/16 03:53:43;;;;;;;5.80;4.20;;;;;;;18.38;100.00;99547.81;5106597;27;20486;-67
2022/09/16 03:56:08;;;;;;;6.18;3.85;;;;;;;18.33;100.00;99553.00;5110168;28;20029;-66
2022/09/16 03:58:34;;;;;;;5.57;3.72;;;;;;;18.25;100.00;99553.16;5110212;28;20028;-66
2022/09/16 04:00:59;;;;;;;5.03;3.72;;;;;;;18.19;100.00;99545.00;5113259;27;20129;-67
2022/09/16 04:03:25;;;;;;;6.25;4.65;;;;;;;18.23;100.00;99551.69;5112886;27;20039;-67
2022/09/16 04:05:55;;;;;;;3.92;3.63;;;;;;;18.21;100.00;99543.75;5110105;28;20047;-66
2022/09/16 04:08:21;;;;;;;4.15;3.80;;;;;;;18.27;100.00;99547.53;5110320;28;20479;-66
2022/09/16 04:10:58;;;;;;;9.32;4.65;;;;;;;18.23;100.00;99546.25;5109879;28;20038;-66
2022/09/16 04:13:24;;;;;;;5.03;4.47;;;;;;;18.29;100.00;99562.59;5109315;27;20034;-66
2022/09/16 04:15:50;;;;;;;7.35;4.40;;;;;;;18.26;100.00;99568.44;5107347;27;20031;-66
2022/09/16 04:18:16;;;;;;;4.80;4.30;;;;;;;18.26;100.00;99570.28;5106074;28;20035;-66
2022/09/16 04:20:41;;;;;;;5.15;4.65;;;;;;;18.27;100.00;99578.22;5110004;28;20031;-65
2022/09/16 04:23:07;;;;;;;4.50;4.10;;;;;;;18.23;100.00;99574.25;5108978;28;20028;-66
2022/09/16 04:25:33;;;;;;;5.97;4.40;;;;;;;18.32;100.00;99593.94;5110226;28;20535;-67
2022/09/16 04:27:59;;;;;;;6.45;4.63;;;;;;;18.35;100.00;99599.81;5110278;27;20043;-66
2022/09/16 04:30:25;;;;;;;6.53;4.47;;;;;;;18.23;100.00;99598.69;5109857;28;20019;-66
2022/09/16 04:32:54;;;;;;;5.60;4.38;;;;;;;18.18;100.00;99595.72;5112061;27;20031;-66
2022/09/16 04:35:20;;;;;;;4.90;4.13;;;;;;;18.08;100.00;99596.09;5109308;28;20521;-66
2022/09/16 04:37:46;;;;;;;5.53;4.35;;;;;;;17.93;100.00;99570.13;5107890;28;20542;-66
2022/09/16 04:40:11;;;;;;;4.65;4.07;;;;;;;18.06;100.00;99600.88;5108928;27;20027;-66
2022/09/16 04:42:37;;;;;;;5.65;5.07;;;;;;;18.15;100.00;99598.84;5108542;27;20069;-66
2022/09/16 04:45:03;;;;;;;5.35;4.80;;;;;;;18.13;100.00;99615.31;5109090;27;20051;-66
2022/09/16 04:47:29;;;;;;;5.95;5.35;;;;;;;18.16;100.00;99611.38;5108968;28;20773;-66
2022/09/16 04:49:54;;;;;;;8.43;5.53;;;;;;;18.18;100.00;99608.47;5108518;28;20038;-66
2022/09/16 04:52:20;;;;;;;6.00;4.57;;;;;;;18.09;100.00;99608.63;5108867;28;20096;-65
2022/09/16 04:54:45;;;;;;;5.25;4.75;;;;;;;17.87;100.00;99588.03;5107932;28;20059;-66
2022/09/16 04:57:11;;;;;;;6.15;5.55;;;;;;;18.01;100.00;99614.22;5110752;27;20499;-66
2022/09/16 04:59:36;;;;;;;5.43;4.90;;;;;;;18.00;100.00;99609.81;5108978;28;20037;-68
2022/09/16 05:02:02;;;;;;;7.20;5.00;;;;;;;18.02;100.00;99606.91;5108534;28;20055;-68
2022/09/16 05:04:27;;;;;;;6.97;5.55;;;;;;;17.97;100.00;99595.81;5108374;28;20082;-68
2022/09/16 05:06:53;;;;;;;7.43;6.05;;;;;;;18.01;100.00;99616.94;5108410;28;20038;-68
2022/09/16 05:09:21;;;;;;;6.22;5.55;;;;;;;18.02;100.00;99625.91;5108650;28;20490;-68
2022/09/16 05:11:47;;;;;;;5.63;5.13;;;;;;;18.01;100.00;99616.94;5107954;28;20194;-68
2022/09/16 05:14:14;;;;;;;7.18;5.57;;;;;;;17.98;100.00;99622.75;5108678;28;20035;-68
2022/09/16 05:16:40;;;;;;;9.25;5.95;;;;;;;17.92;100.00;99615.41;5107798;28;20065;-68
2022/09/16 05:19:06;;;;;;;7.35;5.40;;;;;;;18.03;100.00;99633.84;5108566;28;20726;-67
2022/09/16 05:21:36;;;;;;;7.43;5.80;;;;;;;18.08;100.00;99627.81;5105650;28;20031;-68
2022/09/16 05:24:04;;;;;;;6.25;5.65;;;;;;;18.06;100.00;99630.72;5108110;28;20148;-68
2022/09/16 05:26:31;;;;;;;7.97;5.75;;;;;;;18.03;100.00;99630.31;5108618;28;20463;-68
2022/09/16 05:29:04;;;;;;;7.60;5.85;;;;;;;18.13;100.00;99634.31;5108596;28;20107;-66
2022/09/16 05:31:31;;;;;;;7.07;5.53;;;;;;;18.13;100.00;99638.94;5108677;28;20023;-66
2022/09/16 05:34:01;;;;;;;6.05;5.22;;;;;;;18.14;100.00;99637.88;5108315;28;20450;-67
2022/09/16 05:36:29;;;;;;;7.57;6.18;;;;;;;18.17;100.00;99642.91;5108760;28;20652;-68
2022/09/16 05:38:55;;;;;;;8.98;5.75;;;;;;;18.27;99.29;99647.97;5108156;28;20054;-68
2022/09/16 05:41:21;;;;;;;7.13;5.43;;;;;;;18.25;99.13;99640.03;5107882;27;20032;-68
2022/09/16 05:43:47;;;;;;;8.48;5.75;;;;;;;18.32;98.70;99648.22;5108068;28;20076;-68
2022/09/16 05:46:21;;;;;;;9.75;6.60;;;;;;;18.32;98.47;99631.94;5107824;28;20024;-68
2022/09/16 05:48:47;;;;;;;6.37;5.47;;;;;;;18.34;99.28;99646.97;5107835;27;20463;-68
2022/09/16 05:51:15;;;;;;;5.93;5.32;;;;;;;18.38;99.15;99644.75;5107969;28;20028;-66
2022/09/16 05:53:41;;;;;;;8.65;6.10;;;;;;;18.45;96.65;99635.59;5108162;28;20027;-66
2022/09/16 05:56:10;;;;;;;7.80;6.10;;;;;;;18.39;96.88;99620.09;5106809;28;20031;-66
2022/09/16 05:58:38;;;;;;;8.75;5.90;;;;;;;18.46;95.81;99629.13;5108287;28;20043;-65
2022/09/16 06:01:09;;;;;;;7.78;5.78;;;;;;;18.56;95.16;99639.59;5107824;28;20482;-67
2022/09/16 06:03:36;;;;;;;9.07;5.47;;;;;;;18.39;96.04;99621.97;5107978;28;20413;-68
2022/09/16 06:06:26;;;;;;;7.32;5.65;;;;;;;18.47;96.75;99643.53;5107134;28;20039;-67
2022/09/16 06:08:57;;;;;;;7.70;6.07;;;;;;;18.45;97.08;99641.03;5095360;28;20146;-68
2022/09/16 06:11:24;;;;;;;7.93;5.95;;;;;;;18.46;98.09;99645.41;5107128;28;20094;-68
2022/09/16 06:13:57;;;;;;;10.73;5.97;;;;;;;18.36;98.72;99622.34;5106475;28;20156;-67
2022/09/16 06:16:24;;;;;;;7.15;5.90;;;;;;;18.39;99.18;99625.53;5107011;28;20024;-68
2022/09/16 06:18:51;;;;;;;8.32;6.00;;;;;;;18.48;99.42;99632.47;5105741;28;20023;-68
2022/09/16 06:21:17;;;;;;;8.65;6.35;;;;;;;18.43;98.34;99621.38;5106803;28;20059;-67
2022/09/16 06:23:43;;;;;;;7.38;6.65;;;;;;;18.59;94.96;99626.47;5106196;28;20061;-69
2022/09/16 06:26:20;;;;;;;10.57;6.88;;;;;;;18.57;93.73;99631.25;5106656;28;20063;-67
2022/09/16 06:28:47;;;;;;;8.35;6.03;;;;;;;18.46;94.73;99634.53;5106637;28;20201;-68
2022/09/16 06:31:15;;;;;;;7.88;6.70;;;;;;;18.54;94.35;99630.81;5107024;28;20035;-68
2022/09/16 06:33:41;;;;;;;9.13;6.38;;;;;;;18.47;94.23;99619.91;5106692;28;20106;-68
2022/09/16 06:36:16;;;;;;;7.07;6.38;;;;;;;18.44;94.77;99631.19;5106587;28;20585;-68
2022/09/16 06:38:43;;;;;;;9.20;7.57;;;;;;;18.44;94.56;99643.94;5105092;28;20364;-69
2022/09/16 06:41:10;;;;;;;9.95;7.10;;;;;;;18.39;95.29;99643.69;5106432;28;20047;-68
2022/09/16 06:43:36;;;;;;;8.27;6.82;;;;;;;18.38;94.90;99645.56;5106258;28;20066;-69
2022/09/16 06:46:04;;;;;;;8.90;7.35;;;;;;;18.44;94.84;99647.47;5106771;28;20055;-68
2022/09/16 06:48:32;;;;;;;12.30;6.90;;;;;;;18.50;94.53;99649.41;5106494;28;20023;-69
2022/09/16 06:51:25;;;;;;;9.27;7.05;;;;;;;18.46;95.22;99641.84;5106457;28;20099;-68
2022/09/16 06:53:52;;;;;;;8.75;6.30;;;;;;;18.47;95.66;99647.06;5104888;28;20074;-69
2022/09/16 06:56:20;;;;;;;11.93;6.82;;;;;;;18.46;95.24;99645.41;5106979;28;20530;-69
2022/09/16 06:58:49;;;;;;;14.80;7.38;;;;;;;18.47;95.59;99657.94;5106422;28;20032;-69
2022/09/16 07:01:17;;;;;;;10.50;6.63;;;;;;;18.45;95.59;99643.75;5106289;27;20050;-69
2022/09/16 07:03:44;;;;;;;14.10;7.25;;;;;;;18.54;95.43;99656.09;5106523;28;20031;-67
2022/09/16 07:06:11;;;;;;;9.48;7.20;;;;;;;18.45;96.74;99649.19;5105970;28;20031;-67
2022/09/16 07:08:37;;;;;;;13.15;6.85;;;;;;;18.50;95.98;99654.81;5105057;28;20183;-67
2022/09/16 07:11:05;;;;;;;15.88;7.78;;;;;;;18.54;95.07;99658.81;5106602;28;20043;-66
2022/09/16 07:13:32;;;;;;;11.90;7.03;;;;;;;18.37;93.54;99652.03;5104958;28;20035;-66
2022/09/16 07:16:09;;;;;;;9.02;6.97;;;;;;;18.47;93.03;99652.50;5106207;28;20483;-67
2022/09/16 07:18:34;;;;;;;9.13;7.45;;;;;;;18.39;94.13;99668.13;5104330;28;20031;-67
2022/09/16 07:21:14;;;;;;;8.00;6.47;;;;;;;18.37;93.56;99653.91;5104769;28;20036;-66
2022/09/16 07:23:41;;;;;;;8.60;6.50;;;;;;;18.25;93.39;99650.06;5104697;28;20062;-66
2022/09/16 07:26:09;;;;;;;9.77;6.57;;;;;;;18.26;93.77;99655.28;5106868;28;20035;-66
2022/09/16 07:28:36;;;;;;;7.50;6.70;;;;;;;18.33;94.07;99667.03;5104782;28;20437;-67
2022/09/16 07:31:04;;;;;;;11.65;7.10;;;;;;;18.31;94.08;99668.28;5106312;28;20028;-67
2022/09/16 07:33:32;;;;;;;9.35;6.57;;;;;;;18.29;94.57;99673.91;5106666;28;20023;-65
2022/09/16 07:36:01;;;;;;;10.80;7.30;;;;;;;18.31;94.66;99679.94;5106179;28;20059;-66
2022/09/16 07:38:28;;;;;;;9.20;7.53;;;;;;;18.31;94.02;99674.53;5104141;28;20035;-66
2022/09/16 07:40:54;;;;;;;7.13;6.40;;;;;;;18.31;92.58;99668.28;5106117;28;20625;-66
2022/09/16 07:43:20;;;;;;;7.78;6.97;;;;;;;18.33;92.31;99677.88;5106141;28;20063;-66
2022/09/16 07:45:46;;;;;;;9.20;6.38;;;;;;;18.27;92.12;99678.69;5106098;28;20032;-66
2022/09/16 07:48:12;;;;;;;11.30;7.05;;;;;;;18.36;91.93;99699.25;5106154;28;20083;-67
2022/09/16 07:50:37;;;;;;;6.80;6.20;;;;;;;18.42;90.06;99695.75;5106263;28;20024;-66
2022/09/16 07:53:03;;;;;;;8.55;6.20;;;;;;;18.40;90.71;99700.50;5106537;28;20034;-66
2022/09/16 07:55:28;;;;;;;8.60;6.35;;;;;;;18.34;91.64;99684.16;5105744;28;20027;-67
2022/09/16 07:57:54;;;;;;;7.40;5.72;;;;;;;18.38;91.41;99683.56;5105361;28;20088;-68
2022/09/16 08:00:20;;;;;;;8.10;7.07;;;;;;;18.43;89.82;99682.97;5104607;28;20467;-67
2022/09/16 08:02:46;;;;;;;11.13;6.45;;;;;;;18.35;90.37;99681.25;5105326;28;20033;-68
2022/09/16 08:05:12;;;;;;;9.88;6.32;;;;;;;18.31;90.56;99668.28;5105905;28;20031;-68
2022/09/16 08:07:38;;;;;;;8.68;6.35;;;;;;;18.37;91.74;99676.47;5105751;28;20027;-68
2022/09/16 08:10:04;;;;;;;9.25;7.00;;;;;;;18.57;89.85;99682.84;5105762;28;20080;-69
2022/09/16 08:12:32;;;;;;;10.07;6.88;;;;;;;18.42;91.28;99663.16;5106092;28;20559;-69
2022/09/16 08:14:58;;;;;;;9.60;6.53;;;;;;;18.52;92.60;99669.06;5105938;28;20395;-69
2022/09/16 08:17:25;;;;;;;8.38;6.97;;;;;;;18.56;91.43;99686.63;5105933;28;20543;-66
2022/09/16 08:19:50;;;;;;;8.07;6.97;;;;;;;18.44;92.40;99688.22;5105532;28;20032;-68
2022/09/16 08:22:16;;;;;;;9.65;7.78;;;;;;;18.45;92.69;99692.63;5106146;28;20370;-68
2022/09/16 08:24:41;;;;;;;10.25;6.72;;;;;;;18.46;91.47;99690.72;5105783;28;20463;-68
2022/09/16 08:27:07;;;;;;;7.38;6.35;;;;;;;18.42;92.38;99692.16;5105908;28;20526;-66
2022/09/16 08:29:33;;;;;;;8.88;6.68;;;;;;;18.47;90.25;99668.81;5107647;28;20039;-67
2022/09/16 08:31:58;;;;;;;9.85;7.15;;;;;;;18.54;90.31;99685.97;5109402;28;20031;-67
2022/09/16 08:34:24;;;;;;;8.00;6.95;;;;;;;18.45;91.77;99698.06;5109586;28;20107;-68
2022/09/16 08:36:49;;;;;;;10.38;7.47;;;;;;;18.42;92.29;99701.16;5109352;28;20082;-68
2022/09/16 08:39:15;;;;;;;8.07;6.75;;;;;;;18.42;92.79;99695.75;5109156;28;20027;-68
2022/09/16 08:42:08;;;;;;;9.23;7.00;;;;;;;18.45;92.89;99697.22;5108969;28;20479;-68
2022/09/16 08:44:42;;;;;;;13.95;7.93;;;;;;;18.63;89.94;99689.38;5109800;28;20651;-67
2022/09/16 08:47:22;;;;;;;10.98;7.10;;;;;;;18.58;91.07;99689.97;5109451;27;20463;-68
2022/09/16 08:49:49;;;;;;;9.63;7.53;;;;;;;18.67;91.51;99693.38;5107036;28;20739;-68
2022/09/16 08:52:15;;;;;;;15.50;8.30;;;;;;;18.75;91.41;99687.75;5107848;28;20118;-68
2022/09/16 08:54:47;;;;;;;11.07;8.35;;;;;;;18.81;91.23;99690.50;5108749;28;20095;-68
2022/09/16 08:57:18;;;;;;;11.75;7.13;;;;;;;18.70;92.28;99691.06;5107314;28;20040;-68
2022/09/16 09:00:19;;;;;;;8.90;7.65;;;;;;;18.75;93.05;99701.34;5108812;28;20046;-67
2022/09/16 09:03:22;;;;;;;8.10;7.00;;;;;;;18.77;93.12;99691.94;5025792;28;20100;-66
2022/09/16 09:05:53;;;;;;;8.35;7.53;;;;;;;18.73;93.14;99687.13;5106043;28;20035;-66
2022/09/16 09:08:30;;;;;;;9.68;6.63;;;;;;;18.73;93.21;99690.66;5108610;28;20059;-68
2022/09/16 09:11:23;;;;;;;9.68;7.57;;;;;;;18.77;92.57;99700.06;5106812;28;20548;-68
2022/09/16 09:14:06;;;;;;;9.32;7.50;;;;;;;18.89;91.05;99693.03;5108364;28;20022;-68
2022/09/16 09:17:12;;;;;;;7.80;7.03;;;;;;;18.81;91.79;99692.38;5107283;28;20137;-69
2022/09/16 09:20:04;;;;;;;7.32;6.22;;;;;;;18.81;89.74;99674.19;5108569;28;20044;-67
2022/09/16 09:22:53;;;;;;;6.70;6.00;;;;;;;18.85;89.73;99688.19;5108678;28;20029;-67
2022/09/16 09:25:25;;;;;;;8.00;6.45;;;;;;;18.91;89.01;99692.84;5108450;28;20486;-68
2022/09/16 09:28:12;;;;;;;8.65;6.55;;;;;;;18.99;86.94;99692.66;5108180;28;20039;-68
2022/09/16 09:30:52;;;;;;;8.38;5.25;;;;;;;19.02;82.96;99689.53;5108381;28;20079;-68
2022/09/16 09:33:39;;;;;;;6.00;3.60;;;;;;;18.98;79.27;99688.25;5108140;28;20027;-68
2022/09/16 09:36:35;;;;;;;5.35;3.22;;;;;;;18.94;77.46;99693.28;5108318;28;20027;-68
2022/09/16 09:39:12;;;;;;;4.30;3.08;;;;;;;19.02;72.28;99690.38;5106758;28;20520;-68
2022/09/16 09:42:03;;;;;;;5.57;3.40;;;;;;;19.21;68.89;99705.06;5107992;27;20027;-68
2022/09/16 09:44:32;;;;;;;5.20;2.97;;;;;;;19.11;71.03;99710.91;5104579;28;20416;-68
2022/09/16 09:47:04;;;;;;;5.43;3.10;;;;;;;19.07;72.78;99709.63;5107818;28;20750;-68
2022/09/16 09:49:40;;;;;;;5.05;3.25;;;;;;;19.06;73.27;99707.94;5106756;28;20026;-68
2022/09/16 09:52:30;;;;;;;5.10;2.75;;;;;;;19.15;69.76;99706.72;5107922;28;20382;-68
2022/09/16 09:55:05;;;;;;;6.00;2.80;;;;;;;19.13;70.07;99706.09;5069121;28;20907;-68
2022/09/16 09:58:04;;;;;;;3.40;2.80;;;;;;;19.16;71.93;99708.41;5108045;28;20454;-67
2022/09/16 10:00:30;;;;;;;5.53;3.63;;;;;;;19.17;73.81;99701.94;5083158;27;20058;-66
2022/09/16 10:03:05;;;;;;;5.60;4.28;;;;;;;19.25;73.75;99712.59;5107760;28;20035;-65
2022/09/16 10:05:31;;;;;;;5.22;4.72;;;;;;;19.15;74.97;99701.28;5105737;28;20024;-65
2022/09/16 10:08:01;;;;;;;7.75;4.60;;;;;;;19.27;74.22;99716.00;5107466;28;20039;-65
2022/09/16 10:10:32;;;;;;;5.63;4.25;;;;;;;19.23;73.51;99711.13;5107861;28;20044;-67
2022/09/16 10:13:11;;;;;;;5.47;4.75;;;;;;;19.11;73.57;99712.75;5107272;28;20039;-66
2022/09/16 10:15:38;;;;;;;8.27;5.18;;;;;;;19.22;73.56;99717.63;5106095;28;20116;-65
2022/09/16 10:18:32;;;;;;;7.95;5.65;;;;;;;19.33;73.69;99719.78;5107432;28;20493;-67
2022/09/16 10:21:07;;;;;;;8.52;4.97;;;;;;;19.22;75.11;99718.44;5107343;28;20035;-66
2022/09/16 10:23:34;;;;;;;7.10;5.30;;;;;;;19.14;75.70;99715.94;5107686;27;20036;-67
2022/09/16 10:26:08;;;;;;;12.43;6.20;;;;;;;19.30;75.96;99709.31;5107149;28;20031;-66
2022/09/16 10:28:34;;;;;;;6.43;5.25;;;;;;;19.29;76.77;99707.63;5107239;28;20134;-67
2022/09/16 10:31:00;;;;;;;7.72;5.90;;;;;;;19.21;77.50;99700.47;5107269;28;20165;-68
2022/09/16 10:33:34;;;;;;;7.03;5.15;;;;;;;19.23;78.01;99694.81;5107341;28;20080;-68
2022/09/16 10:36:04;;;;;;;9.18;5.15;;;;;;;19.21;78.71;99692.31;5106909;28;20031;-68
2022/09/16 10:38:35;;;;;;;7.80;4.97;;;;;;;19.33;75.11;99689.88;5107048;28;20027;-68
2022/09/16 10:41:24;;;;;;;9.65;4.13;;;;;;;19.42;69.90;99694.06;5105167;28;20049;-67
2022/09/16 10:43:55;;;;;;;6.47;3.60;;;;;;;19.35;68.82;99691.31;5105252;28;20023;-66
2022/09/16 10:46:20;;;;;;;7.53;4.32;;;;;;;19.52;68.44;99691.78;5107069;28;20406;-65
2022/09/16 10:48:48;;;;;;;10.38;4.55;;;;;;;19.58;69.35;99691.78;5106881;28;20023;-66
2022/09/16 10:51:25;;;;;;;4.82;3.40;;;;;;;19.43;68.39;99695.75;5106347;28;20027;-65
2022/09/16 10:53:59;;;;;;;5.07;3.38;;;;;;;19.37;68.55;99685.69;5106585;28;20693;-66
2022/09/16 10:56:30;;;;;;;4.40;3.45;;;;;;;19.34;68.13;99677.94;5107221;28;20106;-67
2022/09/16 10:59:10;;;;;;;4.63;3.47;;;;;;;19.35;67.74;99675.00;5106549;28;20035;-67
2022/09/16 11:02:00;;;;;;;8.48;3.67;;;;;;;19.42;67.52;99670.44;5105233;28;20621;-66
2022/09/16 11:04:44;;;;;;;4.97;3.95;;;;;;;19.43;68.80;99663.94;5106866;28;20470;-66
2022/09/16 11:07:09;;;;;;;7.20;3.97;;;;;;;19.45;68.75;99675.44;5104456;28;20065;-68
2022/09/16 11:09:42;;;;;;;5.50;3.50;;;;;;;19.37;68.64;99651.16;5105084;28;20071;-68
2022/09/16 11:12:40;;;;;;;5.03;3.85;;;;;;;19.61;65.74;99677.75;5106045;28;20456;-68
2022/09/16 11:15:27;;;;;;;6.85;3.80;;;;;;;19.61;66.78;99680.47;5101738;28;20028;-67
2022/09/16 11:18:20;;;;;;;5.93;4.15;;;;;;;19.64;67.03;99693.66;5106318;28;20039;-66
2022/09/16 11:21:05;;;;;;;5.45;3.83;;;;;;;19.67;65.17;99692.44;5106653;28;20031;-65
2022/09/16 11:23:46;;;;;;;5.65;4.13;;;;;;;19.59;66.15;99698.91;5106550;28;20506;-65
2022/09/16 11:26:26;;;;;;;7.20;3.40;;;;;;;19.52;67.12;99697.22;5104506;28;20595;-65
2022/09/16 11:29:06;;;;;;;4.60;2.65;;;;;;;19.40;63.99;99686.13;5106016;28;20770;-67
2022/09/16 11:31:35;;;;;;;2.92;1.90;;;;;;;19.40;59.46;99683.41;5106725;28;20027;-67
2022/09/16 11:34:06;;;;;;;3.95;1.85;;;;;;;19.48;58.13;99695.97;5106262;28;20073;-67
2022/09/16 11:36:43;;;;;;;3.30;1.60;;;;;;;19.51;57.92;99681.97;5102232;28;20462;-68
2022/09/16 11:39:33;;;;;;;2.22;1.40;;;;;;;19.54;55.72;99679.63;5104613;28;20055;-66
2022/09/16 11:42:27;;;;;;;1.65;1.17;;;;;;;19.62;55.53;99675.88;5104851;28;20023;-67
2022/09/16 11:45:20;;;;;;;3.13;1.63;;;;;;;19.68;55.50;99675.06;5105980;28;20031;-67
2022/09/16 11:47:51;;;;;;;2.72;1.60;;;;;;;19.75;54.39;99676.75;5104863;28;20089;-67
2022/09/16 11:50:19;;;;;;;2.90;1.80;;;;;;;19.67;55.53;99687.00;5106273;28;20089;-68
2022/09/16 11:53:00;;;;;;;4.82;1.42;;;;;;;19.64;55.87;99688.22;5105969;28;20037;-67
2022/09/16 11:55:41;;;;;;;4.90;1.63;;;;;;;19.59;55.99;99681.75;5106284;28;20020;-67